createdAt,value
2022-09-10T00:00:07.817Z,14.4
2022-09-10T00:05:06.049Z,14.4
2022-09-10T00:10:04.156Z,14.5
2022-09-10T00:15:02.205Z,14.7
2022-09-10T00:20:00.317Z,14.7
2022-09-10T00:24:58.611Z,14.7
2022-09-10T00:29:56.985Z,14.8
2022-09-10T00:34:55.232Z,14.9
2022-09-10T00:39:54.067Z,15
2022-09-10T00:44:52.725Z,15.1
2022-09-10T00:49:51.137Z,15.2
2022-09-10T00:54:49.210Z,15.3
2022-09-10T00:59:47.466Z,15.4
2022-09-10T01:04:45.784Z,15.5
2022-09-10T01:09:44.117Z,15.4
2022-09-10T01:14:42.375Z,15.4
2022-09-10T01:19:40.730Z,15.4
2022-09-10T01:24:39.014Z,15.4
2022-09-10T01:29:36.865Z,15.2
2022-09-10T01:34:34.901Z,15.1
2022-09-10T01:39:33.012Z,15
2022-09-10T01:44:31.165Z,14.9
2022-09-10T01:49:29.321Z,14.8
2022-09-10T01:54:27.650Z,14.9
2022-09-10T01:59:26.096Z,14.9
2022-09-10T02:04:24.699Z,14.9
2022-09-10T02:09:23.041Z,15
2022-09-10T02:14:21.020Z,15
2022-09-10T02:19:19.397Z,15
2022-09-10T02:24:17.417Z,15
2022-09-10T02:29:15.693Z,14.9
2022-09-10T02:34:13.877Z,15.2
2022-09-10T02:39:12.076Z,15.2
2022-09-10T02:44:10.421Z,15.1
2022-09-10T02:49:08.535Z,15.1
2022-09-10T02:54:06.858Z,15.2
2022-09-10T02:59:05.186Z,15.3
2022-09-10T03:04:03.361Z,15.4
2022-09-10T03:09:01.326Z,15.5
2022-09-10T03:13:59.360Z,15.4
2022-09-10T03:18:57.810Z,15.3
2022-09-10T03:23:57.046Z,15.4
2022-09-10T03:28:54.615Z,15.7
2022-09-10T03:33:52.707Z,15.6
2022-09-10T03:38:51.017Z,15.6
2022-09-10T03:43:49.204Z,15.6
2022-09-10T03:48:50.067Z,15.7
2022-09-10T03:53:45.992Z,15.6
2022-09-10T03:58:43.976Z,15.5
2022-09-10T04:03:42.219Z,15.5
2022-09-10T04:08:40.416Z,15.5
2022-09-10T04:13:38.674Z,15.5
2022-09-10T04:18:38.069Z,15.4
2022-09-10T04:23:36.162Z,15.6
2022-09-10T04:28:34.655Z,15.7
2022-09-10T04:33:32.923Z,15.7
2022-09-10T04:38:31.365Z,15.9
2022-09-10T04:43:29.427Z,16
2022-09-10T04:48:27.706Z,16.1
2022-09-10T04:53:26.150Z,16.1
2022-09-10T04:58:24.565Z,16.3
2022-09-10T05:03:23.018Z,16.4
2022-09-10T05:08:21.583Z,16.6
2022-09-10T05:13:19.757Z,16.8
2022-09-10T05:18:18.252Z,17
2022-09-10T05:23:16.983Z,17.3
2022-09-10T05:28:15.280Z,17.3
2022-09-10T05:33:13.597Z,17.4
2022-09-10T05:38:11.952Z,17.9
2022-09-10T05:43:10.959Z,18.5
2022-09-10T05:48:09.431Z,19.1
2022-09-10T05:53:08.203Z,19.8
2022-09-10T05:58:08.059Z,21.1
2022-09-10T06:03:06.234Z,21
2022-09-10T06:08:07.978Z,20.8
2022-09-10T06:13:02.177Z,20.3
2022-09-10T06:18:00.452Z,20
2022-09-10T06:22:59.036Z,21
2022-09-10T06:27:57.329Z,21.4
2022-09-10T06:32:55.773Z,21.9
2022-09-10T06:37:58.004Z,24.9
2022-09-10T06:42:56.597Z,25.3
2022-09-10T06:48:36.938Z,26.9
2022-09-10T06:52:54.727Z,27.3
2022-09-10T06:57:53.570Z,27.5
2022-09-10T07:02:53.156Z,29.8
2022-09-10T07:07:51.539Z,30.6
2022-09-10T07:12:51.980Z,32.5
2022-09-10T07:17:51.041Z,32.6
2022-09-10T07:22:49.799Z,32.9
2022-09-10T07:27:49.403Z,35.8
2022-09-10T07:32:47.653Z,34
2022-09-10T07:37:44.831Z,30.4
2022-09-10T07:42:39.875Z,28.6
2022-09-10T07:47:39.403Z,28.3
2022-09-10T07:52:36.357Z,27.8
2022-09-10T07:57:34.502Z,27.6
2022-09-10T08:02:34.204Z,30.9
2022-09-10T08:07:34.472Z,30.3
2022-09-10T08:12:32.122Z,30.5
2022-09-10T08:17:30.835Z,34.5
2022-09-10T08:22:29.460Z,32.1
2022-09-10T08:27:23.326Z,27.8
2022-09-10T08:32:25.313Z,35.1
2022-09-10T08:37:27.408Z,37.5
2022-09-10T08:42:23.760Z,34.9
2022-09-10T08:47:19.175Z,32.2
2022-09-10T08:52:14.757Z,29
2022-09-10T08:57:11.292Z,27.8
2022-09-10T09:02:08.137Z,26.4
2022-09-10T09:07:06.375Z,26.6
2022-09-10T09:12:06.334Z,28
2022-09-10T09:17:04.402Z,27.5
2022-09-10T09:22:02.147Z,27
2022-09-10T09:27:00.112Z,26.6
2022-09-10T09:34:02.482Z,34.6
2022-09-10T09:38:54.307Z,35.2
2022-09-10T09:43:52.099Z,35.2
2022-09-10T09:48:50.880Z,37
2022-09-10T09:53:54.072Z,36.2
2022-09-10T09:58:48.304Z,38.1
2022-09-10T10:03:45.512Z,34.6
2022-09-10T10:08:44.734Z,37
2022-09-10T10:13:42.255Z,34.7
2022-09-10T10:18:40.982Z,36.8
2022-09-10T10:23:36.530Z,31.3
2022-09-10T10:28:32.779Z,31.5
2022-09-10T10:33:31.554Z,32.1
2022-09-10T10:38:31.120Z,34.4
2022-09-10T10:43:30.829Z,36.8
2022-09-10T10:48:28.754Z,33.7
2022-09-10T10:53:26.295Z,34.3
2022-09-10T10:58:24.514Z,35.2
2022-09-10T11:03:25.229Z,35.5
2022-09-10T11:08:22.307Z,35
2022-09-10T11:13:21.587Z,36.9
2022-09-10T11:18:20.356Z,36.6
2022-09-10T11:23:18.734Z,37.2
2022-09-10T11:28:17.388Z,37.8
2022-09-10T11:33:15.096Z,36.6
2022-09-10T11:38:14.068Z,38.7
2022-09-10T11:43:11.208Z,36.7
2022-09-10T11:48:09.590Z,36
2022-09-10T11:53:07.818Z,37.2
2022-09-10T11:58:05.425Z,35.2
2022-09-10T12:03:00.893Z,31.8
2022-09-10T12:07:58.471Z,33
2022-09-10T12:12:57.310Z,32.2
2022-09-10T12:17:55.270Z,32.6
2022-09-10T12:22:53.808Z,32.3
2022-09-10T12:27:52.419Z,33.2
2022-09-10T12:32:50.003Z,31.7
2022-09-10T12:37:49.063Z,33.5
2022-09-10T12:42:48.202Z,34.2
2022-09-10T12:47:45.912Z,32.4
2022-09-10T12:52:42.224Z,31.4
2022-09-10T12:57:42.174Z,34.3
2022-09-10T13:02:41.788Z,36
2022-09-10T13:07:38.855Z,34.8
2022-09-10T13:12:35.566Z,33.2
2022-09-10T13:17:31.740Z,30.4
2022-09-10T13:22:29.114Z,30.7
2022-09-10T13:27:27.568Z,31.8
2022-09-10T13:32:25.523Z,31.6
2022-09-10T13:37:23.396Z,29.5
2022-09-10T13:42:21.753Z,29.9
2022-09-10T13:47:19.717Z,29.8
2022-09-10T13:52:18.250Z,30.1
2022-09-10T13:57:16.495Z,30
2022-09-10T14:02:15.006Z,30
2022-09-10T14:07:13.001Z,29.5
2022-09-10T14:12:11.339Z,30
2022-09-10T14:17:09.683Z,29.5
2022-09-10T14:22:09.925Z,28.8
2022-09-10T14:27:04.617Z,27.8
2022-09-10T14:32:02.837Z,28.3
2022-09-10T14:37:00.317Z,27.5
2022-09-10T14:41:57.617Z,27.2
2022-09-10T14:46:55.636Z,27.1
2022-09-10T14:51:53.890Z,27.1
2022-09-10T14:56:51.797Z,25.8
2022-09-10T15:01:49.435Z,26
2022-09-10T15:06:47.385Z,26
2022-09-10T15:11:45.418Z,25.9
2022-09-10T15:16:43.501Z,25.6
2022-09-10T15:21:41.476Z,25.7
2022-09-10T15:26:39.639Z,25.8
2022-09-10T15:31:37.633Z,25.8
2022-09-10T15:36:35.667Z,25.5
2022-09-10T15:41:33.499Z,25
2022-09-10T15:46:31.455Z,25
2022-09-10T15:51:29.419Z,24.8
2022-09-10T15:56:27.446Z,24.7
2022-09-10T16:01:25.254Z,24.5
2022-09-10T16:06:23.053Z,24.2
2022-09-10T16:11:20.915Z,23.8
2022-09-10T16:16:18.816Z,23.4
2022-09-10T16:21:16.471Z,22.9
2022-09-10T16:26:14.056Z,22.1
2022-09-10T16:31:12.010Z,21.6
2022-09-10T16:36:09.748Z,21.4
2022-09-10T16:41:07.636Z,21.2
2022-09-10T16:46:05.374Z,21.1
2022-09-10T16:51:03.520Z,21
2022-09-10T16:56:01.635Z,20.9
2022-09-10T17:00:59.478Z,20.8
2022-09-10T17:05:57.379Z,20.5
2022-09-10T17:10:55.365Z,20.4
2022-09-10T17:15:53.493Z,20.5
2022-09-10T17:20:51.453Z,20.4
2022-09-10T17:25:49.292Z,20
2022-09-10T17:30:46.983Z,19.7
2022-09-10T17:35:44.480Z,19.3
2022-09-10T17:40:42.332Z,19.1
2022-09-10T17:45:40.411Z,19.1
2022-09-10T17:50:37.630Z,19
2022-09-10T17:55:34.502Z,18.8
2022-09-10T18:00:32.327Z,18.5
2022-09-10T18:05:29.900Z,18.1
2022-09-10T18:10:27.547Z,17.8
2022-09-10T18:15:25.775Z,17.6
2022-09-10T18:20:23.423Z,17.2
2022-09-10T18:25:21.281Z,17.1
2022-09-10T18:30:19.096Z,16.9
2022-09-10T18:35:17.205Z,16.7
2022-09-10T18:40:15.262Z,16.5
2022-09-10T18:45:13.146Z,16.4
2022-09-10T18:50:11.263Z,16.3
2022-09-10T18:55:09.132Z,16.2
2022-09-10T19:00:07.012Z,16.2
2022-09-10T19:05:11.513Z,16.3
2022-09-10T19:10:03.167Z,15.9
2022-09-10T19:15:01.038Z,16
2022-09-10T19:19:59.045Z,16.2
2022-09-10T19:24:57.009Z,16
2022-09-10T19:29:54.842Z,15.9
2022-09-10T19:34:52.996Z,15.7
2022-09-10T19:39:50.971Z,15.6
2022-09-10T19:44:49.096Z,15.4
2022-09-10T19:49:47.241Z,15.5
2022-09-10T19:54:45.228Z,15.3
2022-09-10T19:59:43.529Z,15.2
2022-09-10T20:04:41.766Z,15
2022-09-10T20:09:40.220Z,14.9
2022-09-10T20:14:37.943Z,14.9
2022-09-10T20:19:35.994Z,14.8
2022-09-10T20:24:34.147Z,14.8
2022-09-10T20:29:32.465Z,14.7
2022-09-10T20:34:30.685Z,14.8
2022-09-10T20:39:29.029Z,14.9
2022-09-10T20:44:27.402Z,15.2
2022-09-10T20:49:25.426Z,15
2022-09-10T20:54:23.425Z,14.8
2022-09-10T20:59:24.369Z,14.6
2022-09-10T21:04:19.429Z,14.4
2022-09-10T21:09:17.391Z,14.4
2022-09-10T21:14:15.495Z,14.4
2022-09-10T21:19:13.422Z,14.3
2022-09-10T21:24:11.642Z,14.3
2022-09-10T21:29:09.738Z,14.2
2022-09-10T21:34:07.958Z,14.3
2022-09-10T21:39:06.011Z,14.3
2022-09-10T21:44:04.150Z,14.3
2022-09-10T21:49:02.400Z,14.4
2022-09-10T21:54:00.654Z,14.4
2022-09-10T21:58:58.554Z,14.4
2022-09-10T22:03:56.774Z,14.4
2022-09-10T22:08:54.981Z,14.4
2022-09-10T22:13:53.146Z,14.5
2022-09-10T22:18:51.235Z,14.6
2022-09-10T22:23:49.319Z,14.5
2022-09-10T22:28:47.162Z,14.4
2022-09-10T22:33:45.171Z,14.3
2022-09-10T22:38:43.166Z,14.3
2022-09-10T22:43:40.841Z,14.3
2022-09-10T22:48:39.085Z,14.3
2022-09-10T22:53:37.116Z,14.3
2022-09-10T22:58:35.191Z,14.4
2022-09-10T23:03:33.397Z,14.4
2022-09-10T23:08:31.428Z,14.5
2022-09-10T23:13:29.570Z,14.4
2022-09-10T23:18:27.344Z,14.1
2022-09-10T23:23:25.214Z,13.8
2022-09-10T23:28:22.879Z,13.5
2022-09-10T23:33:20.809Z,13.6
2022-09-10T23:38:18.739Z,13.4
2022-09-10T23:43:16.640Z,13.4
2022-09-10T23:48:14.671Z,13.1
2022-09-10T23:53:12.731Z,13.2
2022-09-10T23:58:10.722Z,13.1
